LGKV/KVA METAR and TAF weather

Enter ICAO airport designator
Station Type Date Time Source
LGKV METAR 2024/04/17 17:50 UTC NOAA

LGKV 171750Z 34005KT 9999 FEW020 BKN030 BKN070 19/13 Q0998


Station Type Date Time Source
LGKV Decoded METAR 2024/04/17 17:50 UTC NOAA

Chrysoupoli Airport , Greece (LGKV) 40-59N 024-36E 5M
Apr 17, 2024 - 01:50 PM EDT / 2024.04.17 1750 UTC
Wind: from the NNW (340 degrees) at 6 MPH (5 KT):0
Visibility: greater than 7 mile(s):0
Sky conditions: mostly cloudy
Temperature: 66 F (19 C)
Dew Point: 55 F (13 C)
Relative Humidity: 68%
Pressure (altimeter): 29.47 in. Hg (0998 hPa)
ob: LGKV 171750Z 34005KT 9999 FEW020 BKN030 BKN070 19/13 Q0998
cycle: 18

Station Type Date Time Source
LGKV TAF 2024/04/17 18:12 UTC NOAA